Terminal Aerodrome Forecast
Issued by NWS Grand Forks, ND

Home | Current Version | Previous Version | Text Only | Print | Product List | Glossary Off
Versions: 1 2 3 4 5 6 7 8 9 10 11 12 13 14 15 16 17 18 19 20 21 22 23 24 25 26

673
FTUS43 KFGF 251724 AAB
TAFGFK
TAF AMD
KGFK 251724Z 2517/2618 17015G23KT P6SM BKN015
      TEMPO 2520/2523 BKN250
     FM260000 17009KT P6SM BKN060
     FM260700 17007KT P6SM BKN030
     FM261000 17007KT P6SM BKN020=

USA.gov is the U.S. government's official web portal to all federal, state and local government web resources and services.